sensor_id;sensor_type;location;lat;lon;timestamp;temperature;humidity
36292;DHT22;22327;51.208;6.418;2023-05-31T00:01:25;16.80;93.70
36292;DHT22;22327;51.208;6.418;2023-05-31T00:04:26;16.80;93.90
36292;DHT22;22327;51.208;6.418;2023-05-31T00:07:27;16.80;94.00
36292;DHT22;22327;51.208;6.418;2023-05-31T00:10:28;16.80;94.00
36292;DHT22;22327;51.208;6.418;2023-05-31T00:13:28;16.70;94.20
36292;DHT22;22327;51.208;6.418;2023-05-31T00:16:29;16.70;94.20
36292;DHT22;22327;51.208;6.418;2023-05-31T00:19:29;16.70;94.40
36292;DHT22;22327;51.208;6.418;2023-05-31T00:22:30;16.70;94.30
36292;DHT22;22327;51.208;6.418;2023-05-31T00:25:31;16.60;94.50
36292;DHT22;22327;51.208;6.418;2023-05-31T00:28:31;16.60;94.70
36292;DHT22;22327;51.208;6.418;2023-05-31T00:31:32;16.60;94.70
36292;DHT22;22327;51.208;6.418;2023-05-31T00:34:35;16.60;95.10
36292;DHT22;22327;51.208;6.418;2023-05-31T00:37:36;16.50;94.90
36292;DHT22;22327;51.208;6.418;2023-05-31T00:40:37;16.50;94.90
36292;DHT22;22327;51.208;6.418;2023-05-31T00:43:38;16.50;95.00
36292;DHT22;22327;51.208;6.418;2023-05-31T00:46:40;16.50;95.10
36292;DHT22;22327;51.208;6.418;2023-05-31T00:49:41;16.50;95.10
36292;DHT22;22327;51.208;6.418;2023-05-31T00:52:44;16.50;95.20
36292;DHT22;22327;51.208;6.418;2023-05-31T00:55:46;16.50;95.20
36292;DHT22;22327;51.208;6.418;2023-05-31T00:58:47;16.40;95.30
36292;DHT22;22327;51.208;6.418;2023-05-31T01:01:49;16.40;95.40
36292;DHT22;22327;51.208;6.418;2023-05-31T01:04:50;16.40;95.30
36292;DHT22;22327;51.208;6.418;2023-05-31T01:07:51;16.40;95.40
36292;DHT22;22327;51.208;6.418;2023-05-31T01:10:53;16.40;95.70
36292;DHT22;22327;51.208;6.418;2023-05-31T01:17:13;16.40;95.40
36292;DHT22;22327;51.208;6.418;2023-05-31T01:20:17;16.40;95.50
36292;DHT22;22327;51.208;6.418;2023-05-31T01:23:39;16.30;95.50
36292;DHT22;22327;51.208;6.418;2023-05-31T01:26:47;16.30;95.60
36292;DHT22;22327;51.208;6.418;2023-05-31T01:29:49;16.30;95.70
36292;DHT22;22327;51.208;6.418;2023-05-31T01:32:51;16.30;95.70
36292;DHT22;22327;51.208;6.418;2023-05-31T01:35:52;16.30;95.50
36292;DHT22;22327;51.208;6.418;2023-05-31T01:38:52;16.30;95.50
36292;DHT22;22327;51.208;6.418;2023-05-31T01:41:54;16.30;95.60
36292;DHT22;22327;51.208;6.418;2023-05-31T01:44:56;16.20;95.50
36292;DHT22;22327;51.208;6.418;2023-05-31T01:48:03;16.10;95.60
36292;DHT22;22327;51.208;6.418;2023-05-31T01:51:08;16.00;95.80
36292;DHT22;22327;51.208;6.418;2023-05-31T01:54:09;15.90;96.10
36292;DHT22;22327;51.208;6.418;2023-05-31T01:57:10;15.80;96.40
36292;DHT22;22327;51.208;6.418;2023-05-31T02:00:11;15.70;96.70
36292;DHT22;22327;51.208;6.418;2023-05-31T02:03:12;15.70;96.80
36292;DHT22;22327;51.208;6.418;2023-05-31T02:06:13;15.60;96.90
36292;DHT22;22327;51.208;6.418;2023-05-31T02:09:13;15.50;97.00
36292;DHT22;22327;51.208;6.418;2023-05-31T02:12:14;15.50;97.00
36292;DHT22;22327;51.208;6.418;2023-05-31T02:15:15;15.50;97.00
36292;DHT22;22327;51.208;6.418;2023-05-31T02:18:15;15.50;97.10
36292;DHT22;22327;51.208;6.418;2023-05-31T02:21:19;15.50;97.10
36292;DHT22;22327;51.208;6.418;2023-05-31T02:24:19;15.40;97.20
36292;DHT22;22327;51.208;6.418;2023-05-31T02:27:20;15.30;97.40
36292;DHT22;22327;51.208;6.418;2023-05-31T02:30:20;15.30;97.70
36292;DHT22;22327;51.208;6.418;2023-05-31T02:33:21;15.20;97.70
36292;DHT22;22327;51.208;6.418;2023-05-31T02:36:22;15.20;97.80
36292;DHT22;22327;51.208;6.418;2023-05-31T02:39:24;15.20;97.90
36292;DHT22;22327;51.208;6.418;2023-05-31T02:42:24;15.10;98.00
36292;DHT22;22327;51.208;6.418;2023-05-31T02:45:25;15.10;98.10
36292;DHT22;22327;51.208;6.418;2023-05-31T02:48:26;15.10;98.10
36292;DHT22;22327;51.208;6.418;2023-05-31T02:51:26;15.10;98.30
36292;DHT22;22327;51.208;6.418;2023-05-31T02:54:27;15.10;98.50
36292;DHT22;22327;51.208;6.418;2023-05-31T02:57:27;15.10;98.20
36292;DHT22;22327;51.208;6.418;2023-05-31T03:00:28;15.00;98.30
36292;DHT22;22327;51.208;6.418;2023-05-31T03:03:29;15.00;98.30
36292;DHT22;22327;51.208;6.418;2023-05-31T03:06:29;15.00;98.40
36292;DHT22;22327;51.208;6.418;2023-05-31T03:09:31;14.90;98.40
36292;DHT22;22327;51.208;6.418;2023-05-31T03:12:31;14.90;98.60
36292;DHT22;22327;51.208;6.418;2023-05-31T03:15:32;14.90;98.60
36292;DHT22;22327;51.208;6.418;2023-05-31T03:18:32;14.80;98.60
36292;DHT22;22327;51.208;6.418;2023-05-31T03:21:33;14.80;98.70
36292;DHT22;22327;51.208;6.418;2023-05-31T03:24:33;14.80;98.90
36292;DHT22;22327;51.208;6.418;2023-05-31T03:27:34;14.70;98.90
36292;DHT22;22327;51.208;6.418;2023-05-31T03:30:34;14.70;98.90
36292;DHT22;22327;51.208;6.418;2023-05-31T03:33:35;14.80;98.80
36292;DHT22;22327;51.208;6.418;2023-05-31T03:36:37;14.80;98.90
36292;DHT22;22327;51.208;6.418;2023-05-31T03:39:37;14.70;99.00
36292;DHT22;22327;51.208;6.418;2023-05-31T03:42:38;14.70;99.20
36292;DHT22;22327;51.208;6.418;2023-05-31T03:45:38;14.70;99.30
36292;DHT22;22327;51.208;6.418;2023-05-31T03:48:39;14.70;99.30
36292;DHT22;22327;51.208;6.418;2023-05-31T03:51:40;14.80;99.40
36292;DHT22;22327;51.208;6.418;2023-05-31T03:54:40;14.80;99.40
36292;DHT22;22327;51.208;6.418;2023-05-31T03:57:41;14.90;99.80
36292;DHT22;22327;51.208;6.418;2023-05-31T04:00:41;15.20;99.90
36292;DHT22;22327;51.208;6.418;2023-05-31T04:03:42;15.60;99.80
36292;DHT22;22327;51.208;6.418;2023-05-31T04:06:42;16.00;98.60
36292;DHT22;22327;51.208;6.418;2023-05-31T04:09:43;16.40;97.90
36292;DHT22;22327;51.208;6.418;2023-05-31T04:12:44;16.70;96.70
36292;DHT22;22327;51.208;6.418;2023-05-31T04:15:44;17.00;96.50
36292;DHT22;22327;51.208;6.418;2023-05-31T04:18:45;17.40;95.70
36292;DHT22;22327;51.208;6.418;2023-05-31T04:21:45;17.80;95.00
36292;DHT22;22327;51.208;6.418;2023-05-31T04:24:47;18.20;94.00
36292;DHT22;22327;51.208;6.418;2023-05-31T04:27:48;18.60;93.50
36292;DHT22;22327;51.208;6.418;2023-05-31T04:30:49;19.00;92.40
36292;DHT22;22327;51.208;6.418;2023-05-31T04:33:52;19.40;91.60
36292;DHT22;22327;51.208;6.418;2023-05-31T04:36:53;19.70;90.50
36292;DHT22;22327;51.208;6.418;2023-05-31T04:39:54;20.10;89.60
36292;DHT22;22327;51.208;6.418;2023-05-31T04:42:55;20.50;88.10
36292;DHT22;22327;51.208;6.418;2023-05-31T04:45:56;21.00;86.80
36292;DHT22;22327;51.208;6.418;2023-05-31T04:49:00;21.50;84.40
36292;DHT22;22327;51.208;6.418;2023-05-31T04:52:01;21.70;82.10
36292;DHT22;22327;51.208;6.418;2023-05-31T04:55:02;22.00;80.20
36292;DHT22;22327;51.208;6.418;2023-05-31T04:58:02;22.30;79.40
36292;DHT22;22327;51.208;6.418;2023-05-31T05:01:03;22.60;76.10
36292;DHT22;22327;51.208;6.418;2023-05-31T05:04:04;23.00;77.50
36292;DHT22;22327;51.208;6.418;2023-05-31T05:07:05;23.30;74.50
36292;DHT22;22327;51.208;6.418;2023-05-31T05:10:06;23.50;72.70
36292;DHT22;22327;51.208;6.418;2023-05-31T05:13:06;23.80;71.30
36292;DHT22;22327;51.208;6.418;2023-05-31T05:16:07;24.30;70.80
36292;DHT22;22327;51.208;6.418;2023-05-31T05:19:07;24.90;69.30
36292;DHT22;22327;51.208;6.418;2023-05-31T05:22:09;25.40;67.00
36292;DHT22;22327;51.208;6.418;2023-05-31T05:25:09;26.10;63.60
36292;DHT22;22327;51.208;6.418;2023-05-31T05:28:10;26.40;59.40
36292;DHT22;22327;51.208;6.418;2023-05-31T05:31:11;26.50;59.40
36292;DHT22;22327;51.208;6.418;2023-05-31T05:34:12;26.50;58.90
36292;DHT22;22327;51.208;6.418;2023-05-31T05:37:12;26.70;56.70
36292;DHT22;22327;51.208;6.418;2023-05-31T05:40:13;26.40;57.50
36292;DHT22;22327;51.208;6.418;2023-05-31T05:43:14;26.70;56.50
36292;DHT22;22327;51.208;6.418;2023-05-31T05:46:14;27.00;55.40
36292;DHT22;22327;51.208;6.418;2023-05-31T05:49:18;27.00;54.40
36292;DHT22;22327;51.208;6.418;2023-05-31T05:52:18;27.00;54.70
36292;DHT22;22327;51.208;6.418;2023-05-31T05:55:19;27.10;53.70
36292;DHT22;22327;51.208;6.418;2023-05-31T05:58:20;27.20;53.10
36292;DHT22;22327;51.208;6.418;2023-05-31T06:01:21;27.40;53.10
36292;DHT22;22327;51.208;6.418;2023-05-31T06:04:24;27.60;51.90
36292;DHT22;22327;51.208;6.418;2023-05-31T06:07:24;27.60;52.10
36292;DHT22;22327;51.208;6.418;2023-05-31T06:10:25;28.10;51.90
36292;DHT22;22327;51.208;6.418;2023-05-31T06:13:25;28.40;50.40
36292;DHT22;22327;51.208;6.418;2023-05-31T06:16:26;28.80;49.90
36292;DHT22;22327;51.208;6.418;2023-05-31T06:19:26;28.70;48.50
36292;DHT22;22327;51.208;6.418;2023-05-31T06:22:27;28.50;48.50
36292;DHT22;22327;51.208;6.418;2023-05-31T06:25:27;28.30;49.20
36292;DHT22;22327;51.208;6.418;2023-05-31T06:28:28;28.60;48.40
36292;DHT22;22327;51.208;6.418;2023-05-31T06:31:29;28.70;47.90
36292;DHT22;22327;51.208;6.418;2023-05-31T06:34:30;28.80;48.10
36292;DHT22;22327;51.208;6.418;2023-05-31T06:37:31;29.30;47.70
36292;DHT22;22327;51.208;6.418;2023-05-31T06:40:31;29.80;46.80
36292;DHT22;22327;51.208;6.418;2023-05-31T06:43:32;30.40;45.70
36292;DHT22;22327;51.208;6.418;2023-05-31T06:46:32;30.70;43.50
36292;DHT22;22327;51.208;6.418;2023-05-31T06:49:33;30.40;43.40
36292;DHT22;22327;51.208;6.418;2023-05-31T06:52:33;30.50;44.10
36292;DHT22;22327;51.208;6.418;2023-05-31T06:55:34;30.90;42.90
36292;DHT22;22327;51.208;6.418;2023-05-31T06:58:35;31.10;42.60
36292;DHT22;22327;51.208;6.418;2023-05-31T07:01:36;31.80;42.60
36292;DHT22;22327;51.208;6.418;2023-05-31T07:04:36;32.20;39.70
36292;DHT22;22327;51.208;6.418;2023-05-31T07:07:37;32.30;39.80
36292;DHT22;22327;51.208;6.418;2023-05-31T07:10:37;32.60;40.30
36292;DHT22;22327;51.208;6.418;2023-05-31T07:13:38;33.10;38.30
36292;DHT22;22327;51.208;6.418;2023-05-31T07:16:38;33.00;38.10
36292;DHT22;22327;51.208;6.418;2023-05-31T07:19:46;33.20;38.40
36292;DHT22;22327;51.208;6.418;2023-05-31T07:22:47;33.50;37.00
36292;DHT22;22327;51.208;6.418;2023-05-31T07:25:47;33.50;37.30
36292;DHT22;22327;51.208;6.418;2023-05-31T07:28:48;33.70;36.70
36292;DHT22;22327;51.208;6.418;2023-05-31T07:31:48;33.50;36.90
36292;DHT22;22327;51.208;6.418;2023-05-31T07:34:49;33.60;36.10
36292;DHT22;22327;51.208;6.418;2023-05-31T07:37:50;33.80;36.60
36292;DHT22;22327;51.208;6.418;2023-05-31T07:40:50;34.10;35.90
36292;DHT22;22327;51.208;6.418;2023-05-31T07:43:51;34.20;35.30
36292;DHT22;22327;51.208;6.418;2023-05-31T07:46:52;34.40;35.50
36292;DHT22;22327;51.208;6.418;2023-05-31T07:49:53;34.90;34.50
36292;DHT22;22327;51.208;6.418;2023-05-31T07:52:53;34.90;34.20
36292;DHT22;22327;51.208;6.418;2023-05-31T07:55:54;35.40;33.90
36292;DHT22;22327;51.208;6.418;2023-05-31T07:58:54;35.90;33.60
36292;DHT22;22327;51.208;6.418;2023-05-31T08:01:55;36.00;33.20
36292;DHT22;22327;51.208;6.418;2023-05-31T08:04:55;36.60;32.60
36292;DHT22;22327;51.208;6.418;2023-05-31T08:08:00;36.70;32.60
36292;DHT22;22327;51.208;6.418;2023-05-31T08:11:01;36.90;31.10
36292;DHT22;22327;51.208;6.418;2023-05-31T08:14:02;36.70;32.00
36292;DHT22;22327;51.208;6.418;2023-05-31T08:17:03;36.70;30.60
36292;DHT22;22327;51.208;6.418;2023-05-31T08:20:04;36.50;31.20
36292;DHT22;22327;51.208;6.418;2023-05-31T08:23:07;36.90;32.00
36292;DHT22;22327;51.208;6.418;2023-05-31T08:26:07;37.30;30.00
36292;DHT22;22327;51.208;6.418;2023-05-31T08:29:08;37.10;29.60
36292;DHT22;22327;51.208;6.418;2023-05-31T08:32:08;37.00;29.60
36292;DHT22;22327;51.208;6.418;2023-05-31T08:35:09;37.00;29.50
36292;DHT22;22327;51.208;6.418;2023-05-31T08:38:10;37.00;29.80
36292;DHT22;22327;51.208;6.418;2023-05-31T08:41:11;37.00;30.00
36292;DHT22;22327;51.208;6.418;2023-05-31T08:44:12;37.10;29.10
36292;DHT22;22327;51.208;6.418;2023-05-31T08:47:19;36.90;29.20
36292;DHT22;22327;51.208;6.418;2023-05-31T08:50:23;37.60;28.70
36292;DHT22;22327;51.208;6.418;2023-05-31T08:53:26;38.10;28.20
36292;DHT22;22327;51.208;6.418;2023-05-31T08:56:28;38.40;28.30
36292;DHT22;22327;51.208;6.418;2023-05-31T08:59:29;38.40;27.20
36292;DHT22;22327;51.208;6.418;2023-05-31T09:02:31;38.70;27.60
36292;DHT22;22327;51.208;6.418;2023-05-31T09:05:31;38.90;26.80
36292;DHT22;22327;51.208;6.418;2023-05-31T09:08:32;38.80;26.90
36292;DHT22;22327;51.208;6.418;2023-05-31T09:11:34;39.00;26.90
36292;DHT22;22327;51.208;6.418;2023-05-31T09:14:38;39.40;26.30
36292;DHT22;22327;51.208;6.418;2023-05-31T09:17:42;39.90;26.20
36292;DHT22;22327;51.208;6.418;2023-05-31T09:20:43;40.60;25.30
36292;DHT22;22327;51.208;6.418;2023-05-31T09:23:57;40.50;25.00
36292;DHT22;22327;51.208;6.418;2023-05-31T09:26:58;40.30;24.60
36292;DHT22;22327;51.208;6.418;2023-05-31T09:30:07;39.70;25.50
36292;DHT22;22327;51.208;6.418;2023-05-31T09:33:08;39.10;26.20
36292;DHT22;22327;51.208;6.418;2023-05-31T09:36:11;39.10;25.90
36292;DHT22;22327;51.208;6.418;2023-05-31T09:39:11;39.10;25.50
36292;DHT22;22327;51.208;6.418;2023-05-31T09:42:13;38.90;25.30
36292;DHT22;22327;51.208;6.418;2023-05-31T09:45:14;38.90;24.90
36292;DHT22;22327;51.208;6.418;2023-05-31T09:48:15;38.90;25.40
36292;DHT22;22327;51.208;6.418;2023-05-31T09:51:15;38.60;24.80
36292;DHT22;22327;51.208;6.418;2023-05-31T09:54:16;38.20;25.10
36292;DHT22;22327;51.208;6.418;2023-05-31T09:57:34;37.60;25.60
36292;DHT22;22327;51.208;6.418;2023-05-31T10:00:44;36.20;26.00
36292;DHT22;22327;51.208;6.418;2023-05-31T10:03:48;34.70;26.80
36292;DHT22;22327;51.208;6.418;2023-05-31T10:06:49;33.80;27.90
36292;DHT22;22327;51.208;6.418;2023-05-31T10:09:51;32.90;29.00
36292;DHT22;22327;51.208;6.418;2023-05-31T10:12:54;31.70;29.60
36292;DHT22;22327;51.208;6.418;2023-05-31T10:16:03;30.80;28.20
36292;DHT22;22327;51.208;6.418;2023-05-31T10:19:06;30.10;29.30
36292;DHT22;22327;51.208;6.418;2023-05-31T10:22:09;29.60;30.40
36292;DHT22;22327;51.208;6.418;2023-05-31T10:28:31;28.50;31.60
36292;DHT22;22327;51.208;6.418;2023-05-31T10:31:41;28.20;32.50
36292;DHT22;22327;51.208;6.418;2023-05-31T10:34:44;28.00;32.50
36292;DHT22;22327;51.208;6.418;2023-05-31T10:37:46;27.80;33.60
36292;DHT22;22327;51.208;6.418;2023-05-31T10:40:56;27.80;33.20
36292;DHT22;22327;51.208;6.418;2023-05-31T10:44:09;27.60;33.30
36292;DHT22;22327;51.208;6.418;2023-05-31T10:47:11;27.50;33.80
36292;DHT22;22327;51.208;6.418;2023-05-31T10:50:18;27.30;34.00
36292;DHT22;22327;51.208;6.418;2023-05-31T10:53:20;27.00;35.00
36292;DHT22;22327;51.208;6.418;2023-05-31T10:56:20;26.90;35.10
36292;DHT22;22327;51.208;6.418;2023-05-31T10:59:26;26.90;35.60
36292;DHT22;22327;51.208;6.418;2023-05-31T11:02:27;26.80;34.80
36292;DHT22;22327;51.208;6.418;2023-05-31T11:05:28;26.70;35.40
36292;DHT22;22327;51.208;6.418;2023-05-31T11:08:28;26.70;36.30
36292;DHT22;22327;51.208;6.418;2023-05-31T11:14:32;26.90;35.60
36292;DHT22;22327;51.208;6.418;2023-05-31T11:17:52;26.80;36.20
36292;DHT22;22327;51.208;6.418;2023-05-31T11:20:54;26.90;36.80
36292;DHT22;22327;51.208;6.418;2023-05-31T11:23:54;26.80;36.50
36292;DHT22;22327;51.208;6.418;2023-05-31T11:27:00;26.70;36.60
36292;DHT22;22327;51.208;6.418;2023-05-31T11:30:01;26.70;36.60
36292;DHT22;22327;51.208;6.418;2023-05-31T11:33:01;26.70;37.30
36292;DHT22;22327;51.208;6.418;2023-05-31T11:36:02;26.70;37.80
36292;DHT22;22327;51.208;6.418;2023-05-31T11:39:03;26.60;37.40
36292;DHT22;22327;51.208;6.418;2023-05-31T11:42:06;26.50;38.20
36292;DHT22;22327;51.208;6.418;2023-05-31T11:45:12;26.60;38.20
36292;DHT22;22327;51.208;6.418;2023-05-31T11:48:42;26.60;37.50
36292;DHT22;22327;51.208;6.418;2023-05-31T11:51:46;26.60;37.80
36292;DHT22;22327;51.208;6.418;2023-05-31T11:54:48;26.70;37.50
36292;DHT22;22327;51.208;6.418;2023-05-31T11:57:49;26.80;37.20
36292;DHT22;22327;51.208;6.418;2023-05-31T12:00:57;26.90;37.90
36292;DHT22;22327;51.208;6.418;2023-05-31T12:03:58;26.80;37.70
36292;DHT22;22327;51.208;6.418;2023-05-31T12:07:03;26.70;37.00
36292;DHT22;22327;51.208;6.418;2023-05-31T12:10:05;26.70;37.60
36292;DHT22;22327;51.208;6.418;2023-05-31T12:13:05;26.70;37.40
36292;DHT22;22327;51.208;6.418;2023-05-31T12:16:06;26.70;36.90
36292;DHT22;22327;51.208;6.418;2023-05-31T12:19:13;26.70;37.50
36292;DHT22;22327;51.208;6.418;2023-05-31T12:22:13;26.80;37.40
36292;DHT22;22327;51.208;6.418;2023-05-31T12:25:14;26.70;37.20
36292;DHT22;22327;51.208;6.418;2023-05-31T12:28:18;26.60;36.50
36292;DHT22;22327;51.208;6.418;2023-05-31T12:31:23;26.60;36.70
36292;DHT22;22327;51.208;6.418;2023-05-31T12:34:26;26.60;37.20
36292;DHT22;22327;51.208;6.418;2023-05-31T12:37:26;26.60;36.50
36292;DHT22;22327;51.208;6.418;2023-05-31T12:40:27;26.60;36.30
36292;DHT22;22327;51.208;6.418;2023-05-31T12:43:28;26.60;37.50
36292;DHT22;22327;51.208;6.418;2023-05-31T12:46:40;26.60;37.20
36292;DHT22;22327;51.208;6.418;2023-05-31T12:49:43;26.70;37.00
36292;DHT22;22327;51.208;6.418;2023-05-31T12:52:55;26.70;37.40
36292;DHT22;22327;51.208;6.418;2023-05-31T12:55:55;26.80;37.40
36292;DHT22;22327;51.208;6.418;2023-05-31T12:58:57;26.90;38.50
36292;DHT22;22327;51.208;6.418;2023-05-31T13:02:00;26.90;37.80
36292;DHT22;22327;51.208;6.418;2023-05-31T13:05:00;27.10;38.10
36292;DHT22;22327;51.208;6.418;2023-05-31T13:08:01;27.20;37.90
36292;DHT22;22327;51.208;6.418;2023-05-31T13:11:01;27.30;37.70
36292;DHT22;22327;51.208;6.418;2023-05-31T13:14:03;27.30;36.50
36292;DHT22;22327;51.208;6.418;2023-05-31T13:17:04;27.20;36.50
36292;DHT22;22327;51.208;6.418;2023-05-31T13:20:05;27.20;37.50
36292;DHT22;22327;51.208;6.418;2023-05-31T13:23:07;27.10;37.20
36292;DHT22;22327;51.208;6.418;2023-05-31T13:26:08;27.10;37.90
36292;DHT22;22327;51.208;6.418;2023-05-31T13:29:09;27.00;37.70
36292;DHT22;22327;51.208;6.418;2023-05-31T13:32:09;27.10;37.80
36292;DHT22;22327;51.208;6.418;2023-05-31T13:35:10;27.00;38.30
36292;DHT22;22327;51.208;6.418;2023-05-31T13:38:12;27.00;38.20
36292;DHT22;22327;51.208;6.418;2023-05-31T13:41:13;27.20;37.40
36292;DHT22;22327;51.208;6.418;2023-05-31T13:44:14;27.30;37.90
36292;DHT22;22327;51.208;6.418;2023-05-31T13:47:15;27.40;38.00
36292;DHT22;22327;51.208;6.418;2023-05-31T13:50:17;27.40;38.00
36292;DHT22;22327;51.208;6.418;2023-05-31T13:53:18;27.50;37.10
36292;DHT22;22327;51.208;6.418;2023-05-31T13:56:18;27.50;36.70
36292;DHT22;22327;51.208;6.418;2023-05-31T13:59:19;27.50;37.10
36292;DHT22;22327;51.208;6.418;2023-05-31T14:02:19;27.60;37.30
36292;DHT22;22327;51.208;6.418;2023-05-31T14:05:22;27.50;37.20
36292;DHT22;22327;51.208;6.418;2023-05-31T14:08:23;27.50;37.20
36292;DHT22;22327;51.208;6.418;2023-05-31T14:11:23;27.50;36.80
36292;DHT22;22327;51.208;6.418;2023-05-31T14:14:27;27.50;37.40
36292;DHT22;22327;51.208;6.418;2023-05-31T14:17:27;27.40;37.10
36292;DHT22;22327;51.208;6.418;2023-05-31T14:20:28;27.50;36.90
36292;DHT22;22327;51.208;6.418;2023-05-31T14:23:28;27.50;37.10
36292;DHT22;22327;51.208;6.418;2023-05-31T14:26:29;27.60;36.90
36292;DHT22;22327;51.208;6.418;2023-05-31T14:29:29;27.70;36.80
36292;DHT22;22327;51.208;6.418;2023-05-31T14:32:30;27.70;36.50
36292;DHT22;22327;51.208;6.418;2023-05-31T14:35:30;27.60;36.80
36292;DHT22;22327;51.208;6.418;2023-05-31T14:38:31;27.50;37.20
36292;DHT22;22327;51.208;6.418;2023-05-31T14:41:31;27.40;37.30
36292;DHT22;22327;51.208;6.418;2023-05-31T14:44:32;27.40;37.60
36292;DHT22;22327;51.208;6.418;2023-05-31T14:47:34;27.30;36.70
36292;DHT22;22327;51.208;6.418;2023-05-31T14:50:38;27.30;37.10
36292;DHT22;22327;51.208;6.418;2023-05-31T14:53:38;27.50;36.90
36292;DHT22;22327;51.208;6.418;2023-05-31T14:56:39;27.60;36.30
36292;DHT22;22327;51.208;6.418;2023-05-31T14:59:39;27.60;37.50
36292;DHT22;22327;51.208;6.418;2023-05-31T15:02:40;27.60;37.80
36292;DHT22;22327;51.208;6.418;2023-05-31T15:05:40;27.50;37.40
36292;DHT22;22327;51.208;6.418;2023-05-31T15:08:41;27.60;38.00
36292;DHT22;22327;51.208;6.418;2023-05-31T15:11:42;27.70;37.90
36292;DHT22;22327;51.208;6.418;2023-05-31T15:14:42;27.90;37.90
36292;DHT22;22327;51.208;6.418;2023-05-31T15:17:43;27.90;38.10
36292;DHT22;22327;51.208;6.418;2023-05-31T15:20:46;27.90;37.90
36292;DHT22;22327;51.208;6.418;2023-05-31T15:23:47;27.90;38.20
36292;DHT22;22327;51.208;6.418;2023-05-31T15:26:47;28.00;37.80
36292;DHT22;22327;51.208;6.418;2023-05-31T15:29:48;28.10;37.60
36292;DHT22;22327;51.208;6.418;2023-05-31T15:32:49;28.00;37.10
36292;DHT22;22327;51.208;6.418;2023-05-31T15:35:49;27.90;37.00
36292;DHT22;22327;51.208;6.418;2023-05-31T15:38:50;27.90;37.10
36292;DHT22;22327;51.208;6.418;2023-05-31T15:41:51;27.80;37.00
36292;DHT22;22327;51.208;6.418;2023-05-31T15:44:51;27.70;37.20
36292;DHT22;22327;51.208;6.418;2023-05-31T15:47:52;27.70;37.60
36292;DHT22;22327;51.208;6.418;2023-05-31T15:50:53;27.70;37.80
36292;DHT22;22327;51.208;6.418;2023-05-31T15:53:54;27.80;37.10
36292;DHT22;22327;51.208;6.418;2023-05-31T15:56:55;27.90;37.50
36292;DHT22;22327;51.208;6.418;2023-05-31T15:59:56;27.90;37.60
36292;DHT22;22327;51.208;6.418;2023-05-31T16:02:56;27.80;37.40
36292;DHT22;22327;51.208;6.418;2023-05-31T16:05:57;27.70;37.40
36292;DHT22;22327;51.208;6.418;2023-05-31T16:08:57;27.70;37.30
36292;DHT22;22327;51.208;6.418;2023-05-31T16:11:58;27.70;38.20
36292;DHT22;22327;51.208;6.418;2023-05-31T16:14:58;27.80;38.90
36292;DHT22;22327;51.208;6.418;2023-05-31T16:18:00;27.90;38.80
36292;DHT22;22327;51.208;6.418;2023-05-31T16:21:00;27.90;38.60
36292;DHT22;22327;51.208;6.418;2023-05-31T16:24:01;27.90;38.60
36292;DHT22;22327;51.208;6.418;2023-05-31T16:27:01;27.90;38.80
36292;DHT22;22327;51.208;6.418;2023-05-31T16:30:04;27.90;38.50
36292;DHT22;22327;51.208;6.418;2023-05-31T16:33:04;27.90;38.30
36292;DHT22;22327;51.208;6.418;2023-05-31T16:36:05;27.70;38.60
36292;DHT22;22327;51.208;6.418;2023-05-31T16:39:06;27.60;39.00
36292;DHT22;22327;51.208;6.418;2023-05-31T16:42:08;27.50;39.40
36292;DHT22;22327;51.208;6.418;2023-05-31T16:45:09;27.40;39.30
36292;DHT22;22327;51.208;6.418;2023-05-31T16:48:09;27.30;39.90
36292;DHT22;22327;51.208;6.418;2023-05-31T16:51:10;27.30;40.30
36292;DHT22;22327;51.208;6.418;2023-05-31T16:54:10;27.40;40.60
36292;DHT22;22327;51.208;6.418;2023-05-31T16:57:11;27.40;40.00
36292;DHT22;22327;51.208;6.418;2023-05-31T17:00:13;27.50;40.40
36292;DHT22;22327;51.208;6.418;2023-05-31T17:03:14;27.50;40.20
36292;DHT22;22327;51.208;6.418;2023-05-31T17:06:14;27.60;39.40
36292;DHT22;22327;51.208;6.418;2023-05-31T17:09:15;27.50;39.60
36292;DHT22;22327;51.208;6.418;2023-05-31T17:12:16;27.50;39.80
36292;DHT22;22327;51.208;6.418;2023-05-31T17:15:16;27.50;40.30
36292;DHT22;22327;51.208;6.418;2023-05-31T17:18:17;27.40;39.50
36292;DHT22;22327;51.208;6.418;2023-05-31T17:21:17;27.40;39.30
36292;DHT22;22327;51.208;6.418;2023-05-31T17:24:18;27.30;39.70
36292;DHT22;22327;51.208;6.418;2023-05-31T17:27:18;27.20;39.90
36292;DHT22;22327;51.208;6.418;2023-05-31T17:30:19;27.10;40.00
36292;DHT22;22327;51.208;6.418;2023-05-31T17:33:26;27.00;40.60
36292;DHT22;22327;51.208;6.418;2023-05-31T17:36:27;27.00;40.90
36292;DHT22;22327;51.208;6.418;2023-05-31T17:39:27;27.00;40.70
36292;DHT22;22327;51.208;6.418;2023-05-31T17:42:28;27.00;41.00
36292;DHT22;22327;51.208;6.418;2023-05-31T17:45:28;26.90;40.70
36292;DHT22;22327;51.208;6.418;2023-05-31T17:48:29;26.80;40.70
36292;DHT22;22327;51.208;6.418;2023-05-31T17:51:29;26.70;40.60
36292;DHT22;22327;51.208;6.418;2023-05-31T17:54:30;26.60;40.70
36292;DHT22;22327;51.208;6.418;2023-05-31T17:57:30;26.60;40.80
36292;DHT22;22327;51.208;6.418;2023-05-31T18:00:31;26.50;41.20
36292;DHT22;22327;51.208;6.418;2023-05-31T18:03:32;26.50;41.60
36292;DHT22;22327;51.208;6.418;2023-05-31T18:06:32;26.60;41.60
36292;DHT22;22327;51.208;6.418;2023-05-31T18:09:33;26.50;41.30
36292;DHT22;22327;51.208;6.418;2023-05-31T18:12:33;26.40;41.50
36292;DHT22;22327;51.208;6.418;2023-05-31T18:15:34;26.40;41.90
36292;DHT22;22327;51.208;6.418;2023-05-31T18:18:35;26.30;41.90
36292;DHT22;22327;51.208;6.418;2023-05-31T18:21:36;26.30;41.80
36292;DHT22;22327;51.208;6.418;2023-05-31T18:24:37;26.30;41.90
36292;DHT22;22327;51.208;6.418;2023-05-31T18:27:38;26.20;41.90
36292;DHT22;22327;51.208;6.418;2023-05-31T18:30:39;26.10;42.30
36292;DHT22;22327;51.208;6.418;2023-05-31T18:33:39;26.10;42.40
36292;DHT22;22327;51.208;6.418;2023-05-31T18:36:40;26.00;42.80
36292;DHT22;22327;51.208;6.418;2023-05-31T18:39:41;25.90;43.20
36292;DHT22;22327;51.208;6.418;2023-05-31T18:42:45;25.90;43.20
36292;DHT22;22327;51.208;6.418;2023-05-31T18:45:45;25.90;43.40
36292;DHT22;22327;51.208;6.418;2023-05-31T18:48:46;25.90;43.60
36292;DHT22;22327;51.208;6.418;2023-05-31T18:51:46;25.70;43.40
36292;DHT22;22327;51.208;6.418;2023-05-31T18:54:47;25.60;43.30
36292;DHT22;22327;51.208;6.418;2023-05-31T18:57:48;25.50;43.50
36292;DHT22;22327;51.208;6.418;2023-05-31T19:00:48;25.50;43.80
36292;DHT22;22327;51.208;6.418;2023-05-31T19:03:49;25.40;43.50
36292;DHT22;22327;51.208;6.418;2023-05-31T19:06:51;25.20;43.60
36292;DHT22;22327;51.208;6.418;2023-05-31T19:09:52;25.20;44.00
36292;DHT22;22327;51.208;6.418;2023-05-31T19:12:53;25.10;44.20
36292;DHT22;22327;51.208;6.418;2023-05-31T19:15:53;25.10;44.50